Terminal Aerodrome Forecast
Issued by NWS Detroit/Pontiac, MI

Home | Current Version | Previous Version | Text Only | Print | Product List | Glossary On
Versions: 1 2 3 4 5 6 7 8 9 10 11 12 13 14 15 16 17 18 19 20 21
482
FTUS43 KDTX 251120
TAFFNT
TAF
KFNT 251120Z 2512/2612 VRB04KT P6SM FEW250
     FM251700 06006KT P6SM SCT045
     FM260000 13004KT P6SM SKC
     FM260600 16003KT P6SM BKN200=

USA.gov is the U.S. government's official web portal to all federal, state and local government web resources and services.